sensor_id;sensor_type;location;lat;lon;timestamp;pressure;altitude;pressure_sealevel;temperature;humidity
28312;BME280;15572;48.810;9.148;2023-02-28T00:00:26;98837.84;;;-2.24;71.27
28312;BME280;15572;48.810;9.148;2023-02-28T00:05:24;98832.00;;;-2.29;72.48
28312;BME280;15572;48.810;9.148;2023-02-28T00:10:23;98829.03;;;-2.37;72.88
28312;BME280;15572;48.810;9.148;2023-02-28T00:15:20;98828.47;;;-2.42;73.56
28312;BME280;15572;48.810;9.148;2023-02-28T00:20:19;98834.09;;;-2.46;73.63
28312;BME280;15572;48.810;9.148;2023-02-28T00:25:19;98829.91;;;-2.50;74.14
28312;BME280;15572;48.810;9.148;2023-02-28T00:30:18;98829.72;;;-2.47;74.67
28312;BME280;15572;48.810;9.148;2023-02-28T00:35:15;98822.81;;;-2.50;74.57
28312;BME280;15572;48.810;9.148;2023-02-28T00:40:13;98835.22;;;-2.50;75.92
28312;BME280;15572;48.810;9.148;2023-02-28T00:45:09;98824.81;;;-2.53;76.43
28312;BME280;15572;48.810;9.148;2023-02-28T00:50:07;98834.88;;;-2.59;77.18
28312;BME280;15572;48.810;9.148;2023-02-28T00:55:04;98830.59;;;-2.61;77.37
28312;BME280;15572;48.810;9.148;2023-02-28T01:00:03;98826.38;;;-2.64;77.71
28312;BME280;15572;48.810;9.148;2023-02-28T01:05:00;98822.94;;;-2.66;79.39
28312;BME280;15572;48.810;9.148;2023-02-28T01:09:56;98828.25;;;-2.66;80.60
28312;BME280;15572;48.810;9.148;2023-02-28T01:14:53;98817.66;;;-2.66;80.94
28312;BME280;15572;48.810;9.148;2023-02-28T01:19:53;98824.88;;;-2.68;81.28
28312;BME280;15572;48.810;9.148;2023-02-28T01:24:49;98818.81;;;-2.70;81.45
28312;BME280;15572;48.810;9.148;2023-02-28T01:29:46;98816.25;;;-2.71;82.75
28312;BME280;15572;48.810;9.148;2023-02-28T01:34:42;98821.53;;;-2.71;82.13
28312;BME280;15572;48.810;9.148;2023-02-28T01:39:40;98820.69;;;-2.72;83.38
28312;BME280;15572;48.810;9.148;2023-02-28T01:44:58;98824.19;;;-2.71;84.03
28312;BME280;15572;48.810;9.148;2023-02-28T01:49:55;98817.19;;;-2.72;84.71
28312;BME280;15572;48.810;9.148;2023-02-28T01:54:55;98815.59;;;-2.75;84.01
28312;BME280;15572;48.810;9.148;2023-02-28T01:59:56;98814.84;;;-2.77;84.66
28312;BME280;15572;48.810;9.148;2023-02-28T02:04:56;98806.59;;;-2.72;85.00
28312;BME280;15572;48.810;9.148;2023-02-28T02:10:03;98796.84;;;-2.72;87.19
28312;BME280;15572;48.810;9.148;2023-02-28T02:15:05;98794.41;;;-2.75;87.75
28312;BME280;15572;48.810;9.148;2023-02-28T02:20:33;98794.41;;;-2.75;88.32
28312;BME280;15572;48.810;9.148;2023-02-28T02:25:39;98785.03;;;-2.80;88.99
28312;BME280;15572;48.810;9.148;2023-02-28T02:31:04;98779.81;;;-2.82;90.46
28312;BME280;15572;48.810;9.148;2023-02-28T02:36:06;98785.59;;;-2.75;91.89
28312;BME280;15572;48.810;9.148;2023-02-28T02:41:09;98784.56;;;-2.73;91.27
28312;BME280;15572;48.810;9.148;2023-02-28T02:46:12;98786.69;;;-2.65;92.10
28312;BME280;15572;48.810;9.148;2023-02-28T02:51:14;98783.84;;;-2.62;92.05
28312;BME280;15572;48.810;9.148;2023-02-28T02:56:13;98774.84;;;-2.60;92.32
28312;BME280;15572;48.810;9.148;2023-02-28T03:01:14;98781.53;;;-2.54;93.00
28312;BME280;15572;48.810;9.148;2023-02-28T03:06:24;98775.19;;;-2.51;93.29
28312;BME280;15572;48.810;9.148;2023-02-28T03:11:21;98785.69;;;-2.50;93.48
28312;BME280;15572;48.810;9.148;2023-02-28T03:16:32;98775.75;;;-2.46;94.20
28312;BME280;15572;48.810;9.148;2023-02-28T03:21:35;98781.69;;;-2.43;94.53
28312;BME280;15572;48.810;9.148;2023-02-28T03:26:39;98786.75;;;-2.40;94.79
28312;BME280;15572;48.810;9.148;2023-02-28T03:31:39;98778.72;;;-2.38;95.54
28312;BME280;15572;48.810;9.148;2023-02-28T03:36:42;98785.72;;;-2.37;95.38
28312;BME280;15572;48.810;9.148;2023-02-28T03:41:43;98773.41;;;-2.38;96.65
28312;BME280;15572;48.810;9.148;2023-02-28T03:46:46;98771.63;;;-2.38;96.69
28312;BME280;15572;48.810;9.148;2023-02-28T03:51:47;98772.25;;;-2.34;96.74
28312;BME280;15572;48.810;9.148;2023-02-28T03:56:48;98771.22;;;-2.32;97.32
28312;BME280;15572;48.810;9.148;2023-02-28T04:01:49;98781.59;;;-2.29;97.15
28312;BME280;15572;48.810;9.148;2023-02-28T04:06:49;98775.16;;;-2.25;97.07
28312;BME280;15572;48.810;9.148;2023-02-28T04:11:49;98772.19;;;-2.20;96.84
28312;BME280;15572;48.810;9.148;2023-02-28T04:16:46;98788.66;;;-2.15;96.66
28312;BME280;15572;48.810;9.148;2023-02-28T04:21:45;98779.75;;;-2.14;96.34
28312;BME280;15572;48.810;9.148;2023-02-28T04:26:45;98781.00;;;-2.07;96.54
28312;BME280;15572;48.810;9.148;2023-02-28T04:31:41;98792.28;;;-2.03;96.13
28312;BME280;15572;48.810;9.148;2023-02-28T04:36:38;98780.91;;;-2.05;96.20
28312;BME280;15572;48.810;9.148;2023-02-28T04:41:34;98777.19;;;-2.03;96.32
28312;BME280;15572;48.810;9.148;2023-02-28T04:46:32;98777.00;;;-2.00;96.46
28312;BME280;15572;48.810;9.148;2023-02-28T04:51:29;98771.59;;;-1.98;96.42
28312;BME280;15572;48.810;9.148;2023-02-28T04:56:25;98772.22;;;-1.95;95.83
28312;BME280;15572;48.810;9.148;2023-02-28T05:01:23;98778.06;;;-1.90;96.00
28312;BME280;15572;48.810;9.148;2023-02-28T05:06:23;98785.63;;;-1.84;95.65
28312;BME280;15572;48.810;9.148;2023-02-28T05:11:21;98782.97;;;-1.84;95.05
28312;BME280;15572;48.810;9.148;2023-02-28T05:16:19;98784.34;;;-1.78;94.82
28312;BME280;15572;48.810;9.148;2023-02-28T05:21:27;98779.22;;;-1.81;95.37
28312;BME280;15572;48.810;9.148;2023-02-28T05:26:25;98782.41;;;-1.76;94.62
28312;BME280;15572;48.810;9.148;2023-02-28T05:31:22;98781.78;;;-1.80;95.16
28312;BME280;15572;48.810;9.148;2023-02-28T05:36:19;98781.59;;;-1.77;95.00
28312;BME280;15572;48.810;9.148;2023-02-28T05:41:18;98781.28;;;-1.72;94.56
28312;BME280;15572;48.810;9.148;2023-02-28T05:46:15;98792.75;;;-1.72;94.79
28312;BME280;15572;48.810;9.148;2023-02-28T05:51:12;98796.88;;;-1.67;95.04
28312;BME280;15572;48.810;9.148;2023-02-28T05:56:08;98794.31;;;-1.69;94.29
28312;BME280;15572;48.810;9.148;2023-02-28T06:01:22;98801.00;;;-1.63;94.30
28312;BME280;15572;48.810;9.148;2023-02-28T06:06:19;98791.66;;;-1.69;94.19
28312;BME280;15572;48.810;9.148;2023-02-28T06:11:16;98798.38;;;-1.63;94.57
28312;BME280;15572;48.810;9.148;2023-02-28T06:16:12;98800.50;;;-1.56;93.92
28312;BME280;15572;48.810;9.148;2023-02-28T06:21:11;98807.19;;;-1.50;93.65
28312;BME280;15572;48.810;9.148;2023-02-28T06:26:08;98804.63;;;-1.52;93.62
28312;BME280;15572;48.810;9.148;2023-02-28T06:31:09;98809.09;;;-1.52;94.54
28312;BME280;15572;48.810;9.148;2023-02-28T06:36:06;98816.84;;;-1.49;93.86
28312;BME280;15572;48.810;9.148;2023-02-28T06:41:05;98825.34;;;-1.44;92.79
28312;BME280;15572;48.810;9.148;2023-02-28T06:46:04;98821.41;;;-1.39;92.78
28312;BME280;15572;48.810;9.148;2023-02-28T06:51:02;98831.22;;;-1.39;92.63
28312;BME280;15572;48.810;9.148;2023-02-28T06:55:59;98831.28;;;-1.28;91.53
28312;BME280;15572;48.810;9.148;2023-02-28T07:00:56;98838.31;;;-1.27;90.95
28312;BME280;15572;48.810;9.148;2023-02-28T07:05:53;98819.94;;;-1.30;91.25
28312;BME280;15572;48.810;9.148;2023-02-28T07:10:52;98841.19;;;-1.30;90.93
28312;BME280;15572;48.810;9.148;2023-02-28T07:15:58;98840.53;;;-1.21;90.93
28312;BME280;15572;48.810;9.148;2023-02-28T07:20:55;98846.78;;;-1.22;89.86
28312;BME280;15572;48.810;9.148;2023-02-28T07:25:51;98841.59;;;-1.11;89.73
28312;BME280;15572;48.810;9.148;2023-02-28T07:30:48;98849.13;;;-1.05;89.82
28312;BME280;15572;48.810;9.148;2023-02-28T07:35:46;98846.66;;;-0.95;89.47
28312;BME280;15572;48.810;9.148;2023-02-28T07:40:42;98857.81;;;-0.90;88.94
28312;BME280;15572;48.810;9.148;2023-02-28T07:45:39;98851.13;;;-0.96;87.78
28312;BME280;15572;48.810;9.148;2023-02-28T07:50:35;98852.81;;;-0.95;87.42
28312;BME280;15572;48.810;9.148;2023-02-28T07:55:33;98855.28;;;-0.92;88.39
28312;BME280;15572;48.810;9.148;2023-02-28T08:00:30;98858.66;;;-0.90;88.17
28312;BME280;15572;48.810;9.148;2023-02-28T08:05:27;98856.31;;;-0.81;87.08
28312;BME280;15572;48.810;9.148;2023-02-28T08:10:23;98866.00;;;-0.80;87.14
28312;BME280;15572;48.810;9.148;2023-02-28T08:15:21;98860.34;;;-0.76;87.33
28312;BME280;15572;48.810;9.148;2023-02-28T08:20:17;98863.94;;;-0.64;86.90
28312;BME280;15572;48.810;9.148;2023-02-28T08:25:14;98868.03;;;-0.48;85.51
28312;BME280;15572;48.810;9.148;2023-02-28T08:30:12;98861.91;;;-0.37;84.68
28312;BME280;15572;48.810;9.148;2023-02-28T08:35:11;98867.25;;;-0.37;83.62
28312;BME280;15572;48.810;9.148;2023-02-28T08:40:08;98872.81;;;-0.40;84.34
28312;BME280;15572;48.810;9.148;2023-02-28T08:45:06;98872.63;;;-0.26;83.65
28312;BME280;15572;48.810;9.148;2023-02-28T08:50:03;98870.56;;;-0.33;83.77
28312;BME280;15572;48.810;9.148;2023-02-28T08:55:02;98875.28;;;-0.26;83.88
28312;BME280;15572;48.810;9.148;2023-02-28T08:59:58;98884.47;;;-0.30;82.89
28312;BME280;15572;48.810;9.148;2023-02-28T09:04:55;98886.59;;;-0.22;83.28
28312;BME280;15572;48.810;9.148;2023-02-28T09:09:51;98878.03;;;-0.15;82.57
28312;BME280;15572;48.810;9.148;2023-02-28T09:14:52;98879.44;;;0.02;81.55
28312;BME280;15572;48.810;9.148;2023-02-28T09:19:49;98879.88;;;0.20;80.83
28312;BME280;15572;48.810;9.148;2023-02-28T09:24:45;98882.03;;;0.50;78.10
28312;BME280;15572;48.810;9.148;2023-02-28T09:29:42;98886.91;;;0.67;74.77
28312;BME280;15572;48.810;9.148;2023-02-28T09:34:40;98900.50;;;0.86;74.03
28312;BME280;15572;48.810;9.148;2023-02-28T09:39:36;98894.97;;;1.00;72.96
28312;BME280;15572;48.810;9.148;2023-02-28T09:44:36;98902.84;;;1.13;71.80
28312;BME280;15572;48.810;9.148;2023-02-28T09:49:40;98904.94;;;1.32;71.45
28312;BME280;15572;48.810;9.148;2023-02-28T09:54:37;98903.22;;;1.42;68.62
28312;BME280;15572;48.810;9.148;2023-02-28T09:59:42;98911.13;;;1.43;67.87
28312;BME280;15572;48.810;9.148;2023-02-28T10:04:46;98902.72;;;1.59;66.80
28312;BME280;15572;48.810;9.148;2023-02-28T10:09:52;98900.16;;;1.68;66.13
28312;BME280;15572;48.810;9.148;2023-02-28T10:14:51;98903.28;;;1.85;66.60
28312;BME280;15572;48.810;9.148;2023-02-28T10:19:57;98906.75;;;2.07;64.86
28312;BME280;15572;48.810;9.148;2023-02-28T10:24:57;98912.53;;;2.24;64.56
28312;BME280;15572;48.810;9.148;2023-02-28T10:29:59;98917.44;;;2.39;63.30
28312;BME280;15572;48.810;9.148;2023-02-28T10:35:00;98925.38;;;2.62;63.39
28312;BME280;15572;48.810;9.148;2023-02-28T10:39:57;98915.66;;;2.81;61.68
28312;BME280;15572;48.810;9.148;2023-02-28T10:45:10;98913.16;;;2.89;60.92
28312;BME280;15572;48.810;9.148;2023-02-28T10:50:27;98908.19;;;3.06;60.03
28312;BME280;15572;48.810;9.148;2023-02-28T10:55:25;98910.16;;;3.34;59.82
28312;BME280;15572;48.810;9.148;2023-02-28T11:00:23;98904.63;;;3.56;58.93
28312;BME280;15572;48.810;9.148;2023-02-28T11:05:27;98897.34;;;3.68;57.92
28312;BME280;15572;48.810;9.148;2023-02-28T11:10:26;98894.06;;;3.64;57.58
28312;BME280;15572;48.810;9.148;2023-02-28T11:15:26;98891.91;;;3.98;57.95
28312;BME280;15572;48.810;9.148;2023-02-28T11:20:28;98892.03;;;3.97;57.22
28312;BME280;15572;48.810;9.148;2023-02-28T11:25:29;98883.91;;;4.46;56.62
28312;BME280;15572;48.810;9.148;2023-02-28T11:30:30;98883.03;;;4.84;54.70
28312;BME280;15572;48.810;9.148;2023-02-28T11:35:30;98880.25;;;5.13;54.29
28312;BME280;15572;48.810;9.148;2023-02-28T11:40:36;98883.88;;;5.96;52.07
28312;BME280;15572;48.810;9.148;2023-02-28T11:45:44;98868.03;;;6.38;50.42
28312;BME280;15572;48.810;9.148;2023-02-28T11:50:48;98868.25;;;6.62;49.52
28312;BME280;15572;48.810;9.148;2023-02-28T11:55:49;98863.81;;;6.78;48.22
28312;BME280;15572;48.810;9.148;2023-02-28T12:01:15;98860.50;;;6.85;48.48
28312;BME280;15572;48.810;9.148;2023-02-28T12:06:21;98863.69;;;7.06;47.84
28312;BME280;15572;48.810;9.148;2023-02-28T12:11:28;98862.78;;;7.23;47.80
28312;BME280;15572;48.810;9.148;2023-02-28T12:16:45;98859.59;;;7.19;47.70
28312;BME280;15572;48.810;9.148;2023-02-28T12:22:00;98846.44;;;7.50;46.56
28312;BME280;15572;48.810;9.148;2023-02-28T12:27:03;98840.41;;;7.56;46.44
28312;BME280;15572;48.810;9.148;2023-02-28T12:32:06;98842.88;;;7.92;46.28
28312;BME280;15572;48.810;9.148;2023-02-28T12:37:21;98840.69;;;7.87;45.59
28312;BME280;15572;48.810;9.148;2023-02-28T12:42:24;98836.69;;;7.99;45.54
28312;BME280;15572;48.810;9.148;2023-02-28T12:47:23;98818.13;;;7.12;45.22
28312;BME280;15572;48.810;9.148;2023-02-28T12:52:25;98828.91;;;7.46;45.55
28312;BME280;15572;48.810;9.148;2023-02-28T12:57:32;98824.16;;;7.82;44.96
28312;BME280;15572;48.810;9.148;2023-02-28T13:02:48;98822.50;;;7.97;44.27
28312;BME280;15572;48.810;9.148;2023-02-28T13:13:21;98822.59;;;7.64;44.47
28312;BME280;15572;48.810;9.148;2023-02-28T13:18:33;98818.25;;;7.79;44.46
28312;BME280;15572;48.810;9.148;2023-02-28T13:29:02;98810.81;;;8.47;43.42
28312;BME280;15572;48.810;9.148;2023-02-28T13:34:14;98798.16;;;8.64;42.05
28312;BME280;15572;48.810;9.148;2023-02-28T13:50:24;98808.25;;;8.21;42.69
28312;BME280;15572;48.810;9.148;2023-02-28T13:55:29;98815.00;;;8.90;42.56
28312;BME280;15572;48.810;9.148;2023-02-28T14:00:37;98806.53;;;9.01;41.29
28312;BME280;15572;48.810;9.148;2023-02-28T14:05:39;98802.81;;;9.18;41.30
28312;BME280;15572;48.810;9.148;2023-02-28T14:10:40;98800.84;;;9.43;40.94
28312;BME280;15572;48.810;9.148;2023-02-28T14:15:49;98799.16;;;9.42;40.75
28312;BME280;15572;48.810;9.148;2023-02-28T14:20:57;98800.00;;;9.51;40.64
28312;BME280;15572;48.810;9.148;2023-02-28T14:26:00;98795.31;;;9.76;40.60
28312;BME280;15572;48.810;9.148;2023-02-28T14:31:05;98797.59;;;9.56;40.53
28312;BME280;15572;48.810;9.148;2023-02-28T14:36:10;98800.47;;;8.18;42.02
28312;BME280;15572;48.810;9.148;2023-02-28T14:41:16;98792.31;;;7.86;43.16
28312;BME280;15572;48.810;9.148;2023-02-28T14:46:13;98797.06;;;8.08;43.42
28312;BME280;15572;48.810;9.148;2023-02-28T14:51:18;98807.38;;;8.29;42.90
28312;BME280;15572;48.810;9.148;2023-02-28T14:56:22;98800.22;;;7.37;43.52
28312;BME280;15572;48.810;9.148;2023-02-28T15:01:20;98800.97;;;7.47;44.78
28312;BME280;15572;48.810;9.148;2023-02-28T15:06:18;98808.69;;;7.92;44.13
28312;BME280;15572;48.810;9.148;2023-02-28T15:11:17;98800.31;;;8.12;43.23
28312;BME280;15572;48.810;9.148;2023-02-28T15:16:19;98808.88;;;7.49;44.69
28312;BME280;15572;48.810;9.148;2023-02-28T15:21:19;98815.16;;;7.57;44.68
28312;BME280;15572;48.810;9.148;2023-02-28T15:26:19;98805.31;;;7.40;44.89
28312;BME280;15572;48.810;9.148;2023-02-28T15:31:23;98809.06;;;7.47;44.96
28312;BME280;15572;48.810;9.148;2023-02-28T15:36:25;98811.41;;;7.42;45.19
28312;BME280;15572;48.810;9.148;2023-02-28T15:41:25;98809.06;;;7.22;45.70
28312;BME280;15572;48.810;9.148;2023-02-28T15:46:21;98806.53;;;6.86;46.20
28312;BME280;15572;48.810;9.148;2023-02-28T15:51:20;98816.03;;;6.72;47.23
28312;BME280;15572;48.810;9.148;2023-02-28T15:56:23;98808.03;;;6.63;47.36
28312;BME280;15572;48.810;9.148;2023-02-28T16:01:24;98813.75;;;6.86;46.74
28312;BME280;15572;48.810;9.148;2023-02-28T16:06:37;98816.16;;;6.89;46.93
28312;BME280;15572;48.810;9.148;2023-02-28T16:11:38;98817.88;;;6.72;47.24
28312;BME280;15572;48.810;9.148;2023-02-28T16:16:42;98823.16;;;6.38;47.75
28312;BME280;15572;48.810;9.148;2023-02-28T16:21:39;98830.38;;;6.20;48.59
28312;BME280;15572;48.810;9.148;2023-02-28T16:26:38;98830.44;;;5.93;49.46
28312;BME280;15572;48.810;9.148;2023-02-28T16:31:37;98824.38;;;5.63;49.68
28312;BME280;15572;48.810;9.148;2023-02-28T16:36:34;98838.25;;;5.31;50.50
28312;BME280;15572;48.810;9.148;2023-02-28T16:41:30;98842.69;;;5.13;51.24
28312;BME280;15572;48.810;9.148;2023-02-28T16:46:31;98846.59;;;4.91;52.02
28312;BME280;15572;48.810;9.148;2023-02-28T16:51:29;98857.78;;;4.68;52.61
28312;BME280;15572;48.810;9.148;2023-02-28T16:56:26;98859.66;;;4.48;52.81
28312;BME280;15572;48.810;9.148;2023-02-28T17:01:22;98867.66;;;4.29;53.68
28312;BME280;15572;48.810;9.148;2023-02-28T17:06:23;98865.13;;;4.08;54.56
28312;BME280;15572;48.810;9.148;2023-02-28T17:11:20;98863.13;;;3.91;54.49
28312;BME280;15572;48.810;9.148;2023-02-28T17:16:22;98870.28;;;3.71;55.51
28312;BME280;15572;48.810;9.148;2023-02-28T17:21:22;98878.41;;;3.50;57.82
28312;BME280;15572;48.810;9.148;2023-02-28T17:26:20;98889.28;;;3.28;59.84
28312;BME280;15572;48.810;9.148;2023-02-28T17:31:20;98886.78;;;3.06;60.90
28312;BME280;15572;48.810;9.148;2023-02-28T17:36:20;98893.75;;;2.87;62.31
28312;BME280;15572;48.810;9.148;2023-02-28T17:41:19;98894.44;;;2.69;63.55
28312;BME280;15572;48.810;9.148;2023-02-28T17:46:17;98905.47;;;2.54;63.77
28312;BME280;15572;48.810;9.148;2023-02-28T17:51:16;98905.25;;;2.46;64.04
28312;BME280;15572;48.810;9.148;2023-02-28T17:56:15;98911.38;;;2.37;64.42
28312;BME280;15572;48.810;9.148;2023-02-28T18:01:14;98911.41;;;2.26;64.88
28312;BME280;15572;48.810;9.148;2023-02-28T18:06:15;98915.81;;;2.16;66.05
28312;BME280;15572;48.810;9.148;2023-02-28T18:11:12;98917.28;;;2.09;66.37
28312;BME280;15572;48.810;9.148;2023-02-28T18:16:15;98917.09;;;2.01;66.89
28312;BME280;15572;48.810;9.148;2023-02-28T18:21:13;98909.84;;;1.92;67.11
28312;BME280;15572;48.810;9.148;2023-02-28T18:26:10;98913.97;;;1.85;66.77
28312;BME280;15572;48.810;9.148;2023-02-28T18:31:07;98908.25;;;1.78;67.78
28312;BME280;15572;48.810;9.148;2023-02-28T18:36:05;98909.88;;;1.69;68.14
28312;BME280;15572;48.810;9.148;2023-02-28T18:41:03;98920.31;;;1.61;68.24
28312;BME280;15572;48.810;9.148;2023-02-28T18:46:04;98916.78;;;1.50;68.36
28312;BME280;15572;48.810;9.148;2023-02-28T18:51:06;98914.63;;;1.44;68.57
28312;BME280;15572;48.810;9.148;2023-02-28T18:56:05;98903.34;;;1.29;69.11
28312;BME280;15572;48.810;9.148;2023-02-28T19:01:03;98904.06;;;1.20;69.26
28312;BME280;15572;48.810;9.148;2023-02-28T19:06:09;98911.09;;;1.10;69.80
28312;BME280;15572;48.810;9.148;2023-02-28T19:11:07;98905.50;;;1.02;70.17
28312;BME280;15572;48.810;9.148;2023-02-28T19:16:06;98908.53;;;0.97;70.45
28312;BME280;15572;48.810;9.148;2023-02-28T19:21:05;98914.47;;;0.90;70.81
28312;BME280;15572;48.810;9.148;2023-02-28T19:26:06;98908.16;;;0.79;70.57
28312;BME280;15572;48.810;9.148;2023-02-28T19:31:03;98925.13;;;0.78;71.18
28312;BME280;15572;48.810;9.148;2023-02-28T19:36:00;98913.09;;;0.73;71.34
28312;BME280;15572;48.810;9.148;2023-02-28T19:41:00;98914.78;;;0.63;71.82
28312;BME280;15572;48.810;9.148;2023-02-28T19:45:58;98918.41;;;0.62;71.54
28312;BME280;15572;48.810;9.148;2023-02-28T19:50:55;98912.66;;;0.44;72.65
28312;BME280;15572;48.810;9.148;2023-02-28T19:55:52;98921.00;;;0.39;73.05
28312;BME280;15572;48.810;9.148;2023-02-28T20:00:49;98917.44;;;0.28;73.35
28312;BME280;15572;48.810;9.148;2023-02-28T20:05:47;98922.38;;;0.21;74.12
28312;BME280;15572;48.810;9.148;2023-02-28T20:10:53;98919.88;;;0.07;75.46
28312;BME280;15572;48.810;9.148;2023-02-28T20:15:49;98918.91;;;-0.16;78.71
28312;BME280;15572;48.810;9.148;2023-02-28T20:20:47;98915.38;;;-0.40;80.09
28312;BME280;15572;48.810;9.148;2023-02-28T20:25:44;98918.56;;;-0.48;81.49
28312;BME280;15572;48.810;9.148;2023-02-28T20:30:40;98912.13;;;-0.56;83.17
28312;BME280;15572;48.810;9.148;2023-02-28T20:35:37;98913.31;;;-0.60;83.42
28312;BME280;15572;48.810;9.148;2023-02-28T20:40:35;98910.22;;;-0.67;83.84
28312;BME280;15572;48.810;9.148;2023-02-28T20:45:32;98914.41;;;-0.75;84.17
28312;BME280;15572;48.810;9.148;2023-02-28T20:50:29;98905.56;;;-0.76;88.96
28312;BME280;15572;48.810;9.148;2023-02-28T20:55:26;98914.59;;;-0.78;90.40
28312;BME280;15572;48.810;9.148;2023-02-28T21:00:24;98909.94;;;-0.88;90.40
28312;BME280;15572;48.810;9.148;2023-02-28T21:05:20;98911.13;;;-1.04;90.93
28312;BME280;15572;48.810;9.148;2023-02-28T21:10:17;98923.78;;;-1.08;89.14
28312;BME280;15572;48.810;9.148;2023-02-28T21:15:13;98923.34;;;-1.14;86.62
28312;BME280;15572;48.810;9.148;2023-02-28T21:20:13;98924.59;;;-1.33;87.83
28312;BME280;15572;48.810;9.148;2023-02-28T21:25:15;98927.16;;;-1.31;87.46
28312;BME280;15572;48.810;9.148;2023-02-28T21:30:12;98920.53;;;-1.38;87.22
28312;BME280;15572;48.810;9.148;2023-02-28T21:35:09;98908.31;;;-1.53;88.02
28312;BME280;15572;48.810;9.148;2023-02-28T21:40:08;98917.34;;;-1.56;88.58
28312;BME280;15572;48.810;9.148;2023-02-28T21:45:07;98911.50;;;-1.61;88.59
28312;BME280;15572;48.810;9.148;2023-02-28T21:50:05;98908.00;;;-1.61;88.45
28312;BME280;15572;48.810;9.148;2023-02-28T21:55:02;98912.22;;;-1.59;88.44
28312;BME280;15572;48.810;9.148;2023-02-28T22:00:00;98899.50;;;-1.66;89.23
28312;BME280;15572;48.810;9.148;2023-02-28T22:04:56;98916.56;;;-1.71;90.25
28312;BME280;15572;48.810;9.148;2023-02-28T22:09:57;98913.22;;;-1.87;93.15
28312;BME280;15572;48.810;9.148;2023-02-28T22:14:54;98910.25;;;-1.95;94.24
28312;BME280;15572;48.810;9.148;2023-02-28T22:19:51;98906.59;;;-2.06;96.06
28312;BME280;15572;48.810;9.148;2023-02-28T22:24:48;98910.72;;;-2.15;95.76
28312;BME280;15572;48.810;9.148;2023-02-28T22:29:44;98911.91;;;-2.06;97.63
28312;BME280;15572;48.810;9.148;2023-02-28T22:34:41;98915.19;;;-2.03;96.14
28312;BME280;15572;48.810;9.148;2023-02-28T22:39:39;98907.22;;;-2.03;96.93
28312;BME280;15572;48.810;9.148;2023-02-28T22:44:35;98913.16;;;-2.12;97.08
28312;BME280;15572;48.810;9.148;2023-02-28T22:49:32;98916.19;;;-2.18;98.16
28312;BME280;15572;48.810;9.148;2023-02-28T22:54:28;98916.88;;;-2.29;98.57
28312;BME280;15572;48.810;9.148;2023-02-28T22:59:26;98908.34;;;-2.20;100.00
28312;BME280;15572;48.810;9.148;2023-02-28T23:04:23;98897.53;;;-2.17;100.00
28312;BME280;15572;48.810;9.148;2023-02-28T23:09:21;98903.44;;;-2.26;100.00
28312;BME280;15572;48.810;9.148;2023-02-28T23:14:18;98912.13;;;-2.50;100.00
28312;BME280;15572;48.810;9.148;2023-02-28T23:19:18;98897.91;;;-2.49;100.00
28312;BME280;15572;48.810;9.148;2023-02-28T23:24:17;98902.19;;;-2.47;100.00
28312;BME280;15572;48.810;9.148;2023-02-28T23:29:15;98906.94;;;-2.52;100.00
28312;BME280;15572;48.810;9.148;2023-02-28T23:34:12;98909.13;;;-2.59;100.00
28312;BME280;15572;48.810;9.148;2023-02-28T23:39:11;98913.00;;;-2.64;100.00
28312;BME280;15572;48.810;9.148;2023-02-28T23:44:08;98907.41;;;-2.60;100.00
28312;BME280;15572;48.810;9.148;2023-02-28T23:49:07;98915.34;;;-2.60;100.00
28312;BME280;15572;48.810;9.148;2023-02-28T23:54:04;98903.44;;;-2.67;100.00
28312;BME280;15572;48.810;9.148;2023-02-28T23:59:03;98898.16;;;-2.81;100.00
